createdAt,value
2022-09-22T00:00:50.628Z,992.217
2022-09-22T00:02:50.613Z,992.226
2022-09-22T00:04:49.820Z,992.181
2022-09-22T00:06:50.116Z,992.164
2022-09-22T00:08:49.919Z,992.193
2022-09-22T00:10:50.608Z,992.191
2022-09-22T00:12:50.382Z,992.210
2022-09-22T00:14:50.131Z,992.159
2022-09-22T00:16:50.340Z,992.169
2022-09-22T00:18:50.274Z,992.166
2022-09-22T00:20:50.029Z,992.137
2022-09-22T00:22:50.796Z,992.171
2022-09-22T00:24:50.495Z,992.172
2022-09-22T00:26:50.614Z,992.144
2022-09-22T00:28:50.690Z,992.151
2022-09-22T00:30:50.590Z,992.143
2022-09-22T00:32:50.644Z,992.124
2022-09-22T00:34:50.323Z,992.143
2022-09-22T00:36:50.533Z,992.151
2022-09-22T00:38:50.392Z,992.112
2022-09-22T00:40:50.240Z,992.133
2022-09-22T00:42:50.209Z,992.108
2022-09-22T00:44:49.825Z,992.108
2022-09-22T00:46:50.011Z,992.059
2022-09-22T00:48:50.044Z,992.077
2022-09-22T00:50:50.711Z,992.065
2022-09-22T00:52:50.397Z,992.034
2022-09-22T00:54:50.163Z,992.001
2022-09-22T00:56:50.304Z,991.987
2022-09-22T00:58:50.136Z,991.982
2022-09-22T01:00:50.103Z,991.944
2022-09-22T01:02:50.091Z,991.975
2022-09-22T01:04:50.227Z,991.977
2022-09-22T01:06:50.199Z,991.979
2022-09-22T01:08:50.068Z,991.969
2022-09-22T01:10:49.858Z,991.971
2022-09-22T01:12:49.814Z,991.969
2022-09-22T01:14:50.604Z,991.947
2022-09-22T01:16:50.594Z,991.954
2022-09-22T01:18:50.385Z,991.890
2022-09-22T01:20:50.066Z,991.872
2022-09-22T01:22:49.853Z,991.872
2022-09-22T01:24:50.589Z,991.886
2022-09-22T01:26:50.777Z,991.851
2022-09-22T01:28:50.734Z,991.839
2022-09-22T01:30:50.527Z,991.832
2022-09-22T01:32:50.265Z,991.823
2022-09-22T01:34:50.592Z,991.833
2022-09-22T01:36:50.662Z,991.857
2022-09-22T01:38:50.522Z,991.829
2022-09-22T01:40:50.357Z,991.794
2022-09-22T01:42:50.024Z,991.813
2022-09-22T01:44:49.882Z,991.800
2022-09-22T01:46:50.174Z,991.800
2022-09-22T01:48:50.195Z,991.775
2022-09-22T01:50:50.007Z,991.781
2022-09-22T01:52:49.865Z,991.795
2022-09-22T01:54:49.834Z,991.781
2022-09-22T01:56:50.038Z,991.771
2022-09-22T01:58:50.037Z,991.778
2022-09-22T02:00:50.764Z,991.775
2022-09-22T02:02:51.106Z,991.775
2022-09-22T02:04:50.780Z,991.775
2022-09-22T02:06:50.211Z,991.747
2022-09-22T02:08:50.443Z,991.752
2022-09-22T02:10:50.262Z,991.760
2022-09-22T02:12:50.032Z,991.695
2022-09-22T02:14:50.023Z,991.752
2022-09-22T02:16:50.166Z,991.692
2022-09-22T02:18:50.064Z,991.700
2022-09-22T02:20:50.075Z,991.723
2022-09-22T02:22:49.786Z,991.684
2022-09-22T02:24:50.724Z,991.716
2022-09-22T02:26:50.791Z,991.747
2022-09-22T02:28:50.788Z,991.729
2022-09-22T02:31:19.810Z,991.702
2022-09-22T02:32:50.116Z,991.702
2022-09-22T02:34:50.372Z,991.702
2022-09-22T02:36:50.347Z,991.682
2022-09-22T02:38:50.140Z,991.679
2022-09-22T02:40:49.932Z,991.697
2022-09-22T02:42:49.945Z,991.687
2022-09-22T02:44:49.768Z,991.702
2022-09-22T02:46:50.199Z,991.712
2022-09-22T02:48:50.057Z,991.653
2022-09-22T02:50:50.173Z,991.659
2022-09-22T02:52:49.950Z,991.655
2022-09-22T02:54:49.812Z,991.690
2022-09-22T02:56:49.850Z,991.632
2022-09-22T02:58:58.693Z,991.673
2022-09-22T03:00:49.824Z,991.629
2022-09-22T03:02:50.645Z,991.650
2022-09-22T03:04:50.320Z,991.639
2022-09-22T03:06:49.815Z,991.639
2022-09-22T03:08:50.541Z,991.665
2022-09-22T03:10:50.318Z,991.657
2022-09-22T03:13:16.231Z,991.639
2022-09-22T03:14:50.657Z,991.594
2022-09-22T03:16:50.696Z,991.592
2022-09-22T03:18:50.356Z,991.628
2022-09-22T03:20:50.216Z,991.614
2022-09-22T03:22:50.058Z,991.577
2022-09-22T03:24:49.840Z,991.545
2022-09-22T03:26:49.947Z,991.537
2022-09-22T03:28:50.686Z,991.496
2022-09-22T03:30:50.940Z,991.563
2022-09-22T03:32:49.850Z,991.513
2022-09-22T03:34:50.280Z,991.518
2022-09-22T03:36:50.358Z,991.574
2022-09-22T03:38:50.012Z,991.578
2022-09-22T03:40:49.951Z,991.586
2022-09-22T03:42:49.928Z,991.619
2022-09-22T03:44:50.679Z,991.601
2022-09-22T03:46:50.774Z,991.586
2022-09-22T03:48:49.833Z,991.592
2022-09-22T03:50:50.747Z,991.599
2022-09-22T03:52:50.625Z,991.637
2022-09-22T03:54:50.384Z,991.601
2022-09-22T03:56:50.439Z,991.592
2022-09-22T03:58:50.274Z,991.567
2022-09-22T04:00:50.035Z,991.621
2022-09-22T04:02:50.042Z,991.563
2022-09-22T04:04:50.660Z,991.563
2022-09-22T04:06:49.896Z,991.528
2022-09-22T04:08:50.512Z,991.548
2022-09-22T04:10:50.230Z,991.528
2022-09-22T04:12:49.874Z,991.526
2022-09-22T04:14:50.731Z,991.561
2022-09-22T04:16:49.990Z,991.573
2022-09-22T04:18:49.969Z,991.571
2022-09-22T04:20:50.595Z,991.553
2022-09-22T04:22:50.456Z,991.504
2022-09-22T04:24:50.323Z,991.516
2022-09-22T04:27:20.783Z,991.510
2022-09-22T04:28:50.332Z,991.551
2022-09-22T04:30:50.316Z,991.548
2022-09-22T04:32:50.345Z,991.528
2022-09-22T04:34:50.620Z,991.537
2022-09-22T04:36:50.705Z,991.534
2022-09-22T04:38:50.467Z,991.533
2022-09-22T04:40:50.329Z,991.548
2022-09-22T04:42:50.147Z,991.549
2022-09-22T04:44:49.900Z,991.588
2022-09-22T04:46:50.100Z,991.580
2022-09-22T04:48:49.842Z,991.580
2022-09-22T04:50:50.618Z,991.557
2022-09-22T04:52:50.529Z,991.547
2022-09-22T04:54:50.203Z,991.536
2022-09-22T04:56:50.224Z,991.561
2022-09-22T04:58:49.826Z,991.561
2022-09-22T05:00:50.770Z,991.564
2022-09-22T05:02:50.126Z,991.536
2022-09-22T05:04:50.714Z,991.538
2022-09-22T05:06:49.856Z,991.534
2022-09-22T05:08:50.624Z,991.539
2022-09-22T05:10:50.683Z,991.522
2022-09-22T05:12:50.551Z,991.523
2022-09-22T05:14:50.410Z,991.495
2022-09-22T05:16:50.650Z,991.522
2022-09-22T05:18:50.668Z,991.559
2022-09-22T05:20:50.628Z,991.558
2022-09-22T05:22:50.515Z,991.560
2022-09-22T05:24:50.501Z,991.575
2022-09-22T05:26:50.755Z,991.593
2022-09-22T05:28:50.566Z,991.576
2022-09-22T05:30:50.383Z,991.633
2022-09-22T05:32:50.172Z,991.600
2022-09-22T05:34:50.321Z,991.649
2022-09-22T05:36:50.455Z,991.662
2022-09-22T05:38:50.379Z,991.601
2022-09-22T05:40:50.240Z,991.637
2022-09-22T05:42:50.089Z,991.649
2022-09-22T05:44:49.946Z,991.664
2022-09-22T05:46:50.201Z,991.678
2022-09-22T05:48:50.339Z,991.683
2022-09-22T05:50:50.145Z,991.657
2022-09-22T05:52:49.884Z,991.646
2022-09-22T05:54:49.777Z,991.693
2022-09-22T05:56:49.834Z,991.660
2022-09-22T05:58:50.622Z,991.688
2022-09-22T06:00:50.446Z,991.709
2022-09-22T06:02:50.761Z,991.716
2022-09-22T06:04:50.499Z,991.746
2022-09-22T06:06:50.662Z,991.729
2022-09-22T06:08:50.469Z,991.765
2022-09-22T06:10:50.215Z,991.800
2022-09-22T06:12:50.060Z,991.778
2022-09-22T06:14:49.836Z,991.795
2022-09-22T06:16:50.103Z,991.789
2022-09-22T06:18:50.011Z,991.787
2022-09-22T06:20:49.880Z,991.816
2022-09-22T06:22:49.805Z,991.845
2022-09-22T06:24:50.678Z,991.838
2022-09-22T06:26:49.992Z,991.822
2022-09-22T06:28:49.875Z,991.853
2022-09-22T06:30:50.599Z,991.847
2022-09-22T06:32:50.384Z,991.815
2022-09-22T06:34:50.604Z,991.788
2022-09-22T06:36:50.740Z,991.784
2022-09-22T06:38:50.540Z,991.809
2022-09-22T06:40:50.421Z,991.763
2022-09-22T06:42:49.834Z,991.759
2022-09-22T06:44:50.758Z,991.767
2022-09-22T06:46:49.948Z,991.724
2022-09-22T06:48:50.734Z,991.728
2022-09-22T06:50:50.393Z,991.709
2022-09-22T06:52:50.432Z,991.757
2022-09-22T06:54:54.137Z,991.718
2022-09-22T06:56:50.346Z,991.712
2022-09-22T06:59:10.773Z,991.692
2022-09-22T07:00:51.100Z,991.731
2022-09-22T07:02:50.449Z,991.712
2022-09-22T07:04:49.888Z,991.679
2022-09-22T07:06:49.975Z,991.686
2022-09-22T07:08:50.706Z,991.712
2022-09-22T07:10:50.551Z,991.690
2022-09-22T07:12:50.405Z,991.726
2022-09-22T07:14:50.476Z,991.681
2022-09-22T07:16:50.558Z,991.662
2022-09-22T07:18:50.316Z,991.674
2022-09-22T07:20:50.319Z,991.668
2022-09-22T07:22:50.296Z,991.668
2022-09-22T07:24:50.621Z,991.668
2022-09-22T07:26:50.747Z,991.658
2022-09-22T07:28:50.529Z,991.646
2022-09-22T07:30:50.361Z,991.662
2022-09-22T07:32:50.312Z,991.663
2022-09-22T07:34:50.566Z,991.667
2022-09-22T07:36:51.628Z,991.683
2022-09-22T07:38:50.563Z,991.683
2022-09-22T07:40:50.519Z,991.621
2022-09-22T07:42:50.705Z,991.617
2022-09-22T07:44:50.714Z,991.585
2022-09-22T07:46:50.882Z,991.563
2022-09-22T07:48:50.043Z,991.567
2022-09-22T07:50:49.812Z,991.552
2022-09-22T07:52:50.749Z,991.521
2022-09-22T07:54:50.564Z,991.512
2022-09-22T07:56:50.677Z,991.545
2022-09-22T07:58:49.878Z,991.562
2022-09-22T08:00:50.868Z,991.530
2022-09-22T08:02:50.032Z,991.521
2022-09-22T08:04:50.399Z,991.529
2022-09-22T08:06:50.347Z,991.568
2022-09-22T08:08:50.152Z,991.564
2022-09-22T08:10:49.933Z,991.554
2022-09-22T08:12:49.886Z,991.521
2022-09-22T08:14:50.568Z,991.541
2022-09-22T08:16:50.657Z,991.499
2022-09-22T08:18:50.497Z,991.491
2022-09-22T08:20:50.230Z,991.448
2022-09-22T08:22:50.187Z,991.481
2022-09-22T08:24:49.989Z,991.478
2022-09-22T08:26:50.332Z,991.491
2022-09-22T08:28:50.376Z,991.501
2022-09-22T08:30:50.291Z,991.469
2022-09-22T08:32:50.391Z,991.461
2022-09-22T08:34:50.700Z,991.491
2022-09-22T08:36:50.120Z,991.444
2022-09-22T08:38:50.104Z,991.455
2022-09-22T08:40:50.360Z,991.469
2022-09-22T08:42:50.591Z,991.490
2022-09-22T08:44:50.439Z,991.456
2022-09-22T08:46:50.830Z,991.439
2022-09-22T08:48:49.922Z,991.436
2022-09-22T08:50:50.607Z,991.434
2022-09-22T08:52:50.271Z,991.377
2022-09-22T08:54:50.236Z,991.408
2022-09-22T08:56:50.364Z,991.449
2022-09-22T08:58:50.165Z,991.448
2022-09-22T09:00:49.929Z,991.414
2022-09-22T09:02:50.841Z,991.414
2022-09-22T09:04:50.560Z,991.407
2022-09-22T09:06:50.404Z,991.444
2022-09-22T09:08:50.381Z,991.463
2022-09-22T09:10:50.253Z,991.423
2022-09-22T09:12:50.031Z,991.433
2022-09-22T09:14:50.775Z,991.443
2022-09-22T09:16:49.935Z,991.405
2022-09-22T09:18:49.918Z,991.433
2022-09-22T09:20:50.663Z,991.372
2022-09-22T09:22:50.513Z,991.389
2022-09-22T09:25:27.503Z,991.389
2022-09-22T09:26:50.051Z,991.396
2022-09-22T09:28:50.018Z,991.403
2022-09-22T09:30:50.152Z,991.368
2022-09-22T09:32:50.121Z,991.344
2022-09-22T09:34:56.237Z,991.344
2022-09-22T09:38:50.677Z,991.253
2022-09-22T09:40:50.589Z,991.254
2022-09-22T09:42:50.451Z,991.263
2022-09-22T09:44:50.499Z,991.226
2022-09-22T09:46:49.842Z,991.234
2022-09-22T09:48:50.623Z,991.206
2022-09-22T09:50:50.753Z,991.220
2022-09-22T09:52:50.684Z,991.177
2022-09-22T09:54:50.390Z,991.209
2022-09-22T09:56:50.490Z,991.209
2022-09-22T09:58:50.147Z,991.157
2022-09-22T10:00:50.043Z,991.159
2022-09-22T10:02:49.901Z,991.166
2022-09-22T10:04:50.172Z,991.205
2022-09-22T10:06:50.443Z,991.163
2022-09-22T10:08:50.163Z,991.171
2022-09-22T10:10:49.976Z,991.120
2022-09-22T10:12:49.884Z,991.098
2022-09-22T10:14:50.646Z,991.081
2022-09-22T10:16:50.020Z,991.084
2022-09-22T10:18:49.927Z,991.055
2022-09-22T10:20:50.739Z,991.025
2022-09-22T10:22:50.597Z,990.974
2022-09-22T10:24:50.559Z,990.974
2022-09-22T10:26:49.910Z,990.931
2022-09-22T10:28:49.891Z,990.880
2022-09-22T10:30:49.948Z,990.863
2022-09-22T10:32:50.210Z,990.822
2022-09-22T10:34:50.705Z,990.810
2022-09-22T10:36:49.982Z,990.791
2022-09-22T10:38:49.879Z,990.769
2022-09-22T10:40:50.476Z,990.796
2022-09-22T10:42:50.527Z,990.768
2022-09-22T10:44:50.320Z,990.770
2022-09-22T10:46:50.597Z,990.748
2022-09-22T10:48:50.542Z,990.748
2022-09-22T10:50:50.374Z,990.704
2022-09-22T10:52:50.296Z,990.713
2022-09-22T10:54:50.258Z,990.723
2022-09-22T10:56:50.521Z,990.708
2022-09-22T10:58:50.657Z,990.738
2022-09-22T11:00:50.392Z,990.738
2022-09-22T11:02:50.201Z,990.738
2022-09-22T11:04:50.806Z,990.695
2022-09-22T11:06:50.099Z,990.675
2022-09-22T11:08:49.928Z,990.655
2022-09-22T11:10:49.941Z,990.671
2022-09-22T11:12:50.777Z,990.680
2022-09-22T11:14:50.710Z,990.719
2022-09-22T11:16:49.856Z,990.706
2022-09-22T11:18:50.702Z,990.640
2022-09-22T11:20:50.655Z,990.612
2022-09-22T11:22:50.396Z,990.627
2022-09-22T11:24:50.052Z,990.581
2022-09-22T11:26:50.465Z,990.600
2022-09-22T11:28:57.619Z,990.552
2022-09-22T11:30:50.788Z,990.559
2022-09-22T11:32:50.739Z,990.543
2022-09-22T11:34:49.897Z,990.557
2022-09-22T11:36:52.138Z,990.476
2022-09-22T11:38:50.084Z,990.428
2022-09-22T11:40:50.283Z,990.420
2022-09-22T11:42:50.434Z,990.347
2022-09-22T11:44:50.047Z,990.365
2022-09-22T11:46:50.116Z,990.336
2022-09-22T11:48:50.737Z,990.353
2022-09-22T11:50:50.623Z,990.344
2022-09-22T11:52:50.564Z,990.295
2022-09-22T11:54:50.382Z,990.285
2022-09-22T11:56:50.621Z,990.252
2022-09-22T11:58:50.373Z,990.200
2022-09-22T12:00:50.158Z,990.138
2022-09-22T12:02:50.354Z,990.088
2022-09-22T12:04:50.176Z,990.083
2022-09-22T12:06:50.326Z,990.085
2022-09-22T12:08:50.323Z,990.088
2022-09-22T12:10:50.389Z,990.083
2022-09-22T12:12:50.283Z,990.078
2022-09-22T12:14:50.093Z,989.997
2022-09-22T12:16:50.456Z,989.950
2022-09-22T12:18:50.381Z,989.906
2022-09-22T12:20:50.418Z,989.926
2022-09-22T12:22:50.254Z,989.877
2022-09-22T12:24:49.899Z,989.884
2022-09-22T12:26:50.260Z,989.821
2022-09-22T12:28:50.118Z,989.840
2022-09-22T12:30:50.377Z,989.845
2022-09-22T12:32:50.366Z,989.829
2022-09-22T12:34:50.524Z,989.789
2022-09-22T12:36:50.735Z,989.766
2022-09-22T12:38:49.782Z,989.766
2022-09-22T12:40:50.656Z,989.790
2022-09-22T12:42:50.438Z,989.800
2022-09-22T12:44:50.481Z,989.835
2022-09-22T12:46:49.833Z,989.815
2022-09-22T12:48:50.705Z,989.829
2022-09-22T12:50:50.746Z,989.785
2022-09-22T12:52:50.595Z,989.794
2022-09-22T12:54:50.495Z,989.781
2022-09-22T12:56:50.804Z,989.776
2022-09-22T12:58:50.703Z,989.739
2022-09-22T13:00:50.967Z,989.722
2022-09-22T13:02:50.120Z,989.704
2022-09-22T13:04:50.563Z,989.670
2022-09-22T13:06:50.646Z,989.641
2022-09-22T13:08:50.509Z,989.631
2022-09-22T13:10:50.440Z,989.596
2022-09-22T13:12:50.237Z,989.614
2022-09-22T13:14:50.163Z,989.580
2022-09-22T13:16:50.136Z,989.474
2022-09-22T13:18:50.068Z,989.523
2022-09-22T13:20:49.841Z,989.512
2022-09-22T13:22:50.649Z,989.429
2022-09-22T13:24:50.620Z,989.413
2022-09-22T13:26:50.695Z,989.439
2022-09-22T13:28:50.609Z,989.366
2022-09-22T13:30:50.490Z,989.372
2022-09-22T13:32:50.487Z,989.431
2022-09-22T13:34:49.849Z,989.359
2022-09-22T13:36:49.813Z,989.347
2022-09-22T13:38:50.562Z,989.328
2022-09-22T13:40:50.670Z,989.347
2022-09-22T13:42:49.975Z,989.389
2022-09-22T13:44:49.989Z,989.245
2022-09-22T13:46:50.068Z,989.284
2022-09-22T13:48:50.040Z,989.251
2022-09-22T13:50:49.910Z,989.233
2022-09-22T13:52:50.760Z,989.198
2022-09-22T13:54:50.638Z,989.196
2022-09-22T13:56:49.833Z,989.177
2022-09-22T13:58:50.710Z,989.144
2022-09-22T14:01:13.714Z,989.144
2022-09-22T14:02:50.878Z,989.149
2022-09-22T14:04:50.498Z,989.115
2022-09-22T14:06:50.628Z,989.056
2022-09-22T14:08:50.476Z,989.051
2022-09-22T14:10:50.373Z,989.082
2022-09-22T14:12:50.268Z,989.017
2022-09-22T14:14:50.050Z,989.033
2022-09-22T14:16:50.393Z,988.976
2022-09-22T14:18:50.574Z,988.969
2022-09-22T14:20:50.305Z,988.970
2022-09-22T14:22:50.125Z,988.950
2022-09-22T14:24:50.826Z,988.897
2022-09-22T14:26:50.194Z,988.933
2022-09-22T14:28:50.135Z,988.912
2022-09-22T14:30:50.802Z,988.878
2022-09-22T14:32:50.722Z,988.864
2022-09-22T14:34:50.240Z,988.862
2022-09-22T14:36:50.176Z,988.830
2022-09-22T14:39:10.704Z,988.819
2022-09-22T14:40:50.757Z,988.821
2022-09-22T14:42:50.805Z,988.819
2022-09-22T14:44:50.763Z,988.753
2022-09-22T14:46:49.996Z,988.724
2022-09-22T14:48:50.007Z,988.742
2022-09-22T14:50:49.880Z,988.726
2022-09-22T14:52:49.856Z,988.750
2022-09-22T14:54:50.734Z,988.705
2022-09-22T14:56:50.680Z,988.713
2022-09-22T14:58:50.557Z,988.723
2022-09-22T15:00:50.556Z,988.722
2022-09-22T15:02:50.545Z,988.676
2022-09-22T15:04:49.809Z,988.676
2022-09-22T15:06:49.621Z,988.664
2022-09-22T15:08:50.557Z,988.638
2022-09-22T15:10:50.363Z,988.591
2022-09-22T15:12:50.331Z,988.600
2022-09-22T15:14:50.134Z,988.624
2022-09-22T15:16:50.260Z,988.548
2022-09-22T15:18:50.296Z,988.548
2022-09-22T15:20:50.049Z,988.472
2022-09-22T15:22:49.987Z,988.538
2022-09-22T15:24:49.740Z,988.508
2022-09-22T15:26:49.922Z,988.566
2022-09-22T15:28:49.838Z,988.560
2022-09-22T15:30:49.753Z,988.588
2022-09-22T15:32:49.707Z,988.563
2022-09-22T15:34:50.237Z,988.553
2022-09-22T15:36:50.484Z,988.545
2022-09-22T15:38:50.345Z,988.551
2022-09-22T15:40:50.284Z,988.550
2022-09-22T15:43:12.968Z,988.535
2022-09-22T15:44:50.643Z,988.522
2022-09-22T15:46:49.846Z,988.539
2022-09-22T15:48:50.717Z,988.496
2022-09-22T15:50:50.649Z,988.485
2022-09-22T15:52:50.419Z,988.495
2022-09-22T15:54:50.233Z,988.491
2022-09-22T15:56:50.303Z,988.458
2022-09-22T15:58:50.140Z,988.477
2022-09-22T16:00:50.172Z,988.438
2022-09-22T16:02:50.460Z,988.488
2022-09-22T16:04:49.806Z,988.475
2022-09-22T16:06:50.638Z,988.526
2022-09-22T16:08:50.617Z,988.493
2022-09-22T16:10:50.427Z,988.473
2022-09-22T16:12:50.215Z,988.465
2022-09-22T16:14:50.150Z,988.451
2022-09-22T16:16:50.356Z,988.452
2022-09-22T16:18:50.246Z,988.417
2022-09-22T16:20:50.041Z,988.405
2022-09-22T16:22:49.812Z,988.382
2022-09-22T16:24:49.804Z,988.375
2022-09-22T16:26:49.897Z,988.371
2022-09-22T16:28:50.706Z,988.371
2022-09-22T16:30:50.529Z,988.361
2022-09-22T16:32:50.337Z,988.366
2022-09-22T16:34:50.537Z,988.320
2022-09-22T16:36:50.736Z,988.342
2022-09-22T16:38:50.454Z,988.309
2022-09-22T16:40:50.387Z,988.305
2022-09-22T16:42:50.287Z,988.305
2022-09-22T16:44:50.451Z,988.305
2022-09-22T16:46:50.040Z,988.282
2022-09-22T16:48:49.990Z,988.303
2022-09-22T16:50:49.972Z,988.329
2022-09-22T16:52:49.844Z,988.355
2022-09-22T16:54:49.870Z,988.379
2022-09-22T16:56:50.166Z,988.362
2022-09-22T16:58:50.066Z,988.374
2022-09-22T17:00:50.105Z,988.386
2022-09-22T17:02:50.099Z,988.386
2022-09-22T17:04:50.497Z,988.387
2022-09-22T17:06:50.630Z,988.329
2022-09-22T17:08:50.642Z,988.339
2022-09-22T17:10:50.502Z,988.369
2022-09-22T17:12:50.476Z,988.336
2022-09-22T17:14:50.285Z,988.347
2022-09-22T17:16:50.499Z,988.360
2022-09-22T17:18:50.346Z,988.372
2022-09-22T17:20:50.186Z,988.354
2022-09-22T17:22:50.096Z,988.362
2022-09-22T17:24:49.885Z,988.371
2022-09-22T17:26:49.882Z,988.404
2022-09-22T17:28:50.754Z,988.387
2022-09-22T17:30:50.727Z,988.428
2022-09-22T17:32:50.577Z,988.434
2022-09-22T17:34:49.928Z,988.404
2022-09-22T17:36:50.010Z,988.416
2022-09-22T17:38:49.911Z,988.439
2022-09-22T17:40:51.043Z,988.414
2022-09-22T17:42:49.868Z,988.465
2022-09-22T17:44:50.626Z,988.456
2022-09-22T17:46:50.713Z,988.488
2022-09-22T17:48:50.605Z,988.492
2022-09-22T17:50:50.510Z,988.483
2022-09-22T17:52:50.297Z,988.491
2022-09-22T17:54:50.115Z,988.493
2022-09-22T17:56:50.186Z,988.493
2022-09-22T17:58:49.970Z,988.528
2022-09-22T18:00:50.790Z,988.562
2022-09-22T18:02:50.944Z,988.560
2022-09-22T18:04:50.346Z,988.565
2022-09-22T18:06:50.278Z,988.532
2022-09-22T18:08:50.020Z,988.563
2022-09-22T18:10:50.772Z,988.568
2022-09-22T18:12:50.541Z,988.603
2022-09-22T18:14:50.573Z,988.603
2022-09-22T18:16:50.768Z,988.640
2022-09-22T18:18:50.519Z,988.636
2022-09-22T18:20:50.424Z,988.600
2022-09-22T18:22:50.095Z,988.600
2022-09-22T18:24:49.985Z,988.610
2022-09-22T18:26:49.946Z,988.616
2022-09-22T18:28:50.643Z,988.609
2022-09-22T18:30:50.668Z,988.584
2022-09-22T18:32:50.678Z,988.617
2022-09-22T18:34:50.424Z,988.604
2022-09-22T18:36:50.615Z,988.642
2022-09-22T18:38:50.455Z,988.646
2022-09-22T18:40:50.728Z,988.649
2022-09-22T18:42:50.006Z,988.634
2022-09-22T18:44:49.922Z,988.663
2022-09-22T18:46:50.364Z,988.676
2022-09-22T18:48:50.370Z,988.698
2022-09-22T18:50:50.433Z,988.697
2022-09-22T18:52:50.248Z,988.728
2022-09-22T18:54:50.162Z,988.730
2022-09-22T18:56:50.434Z,988.745
2022-09-22T18:58:50.343Z,988.703
2022-09-22T19:00:50.355Z,988.715
2022-09-22T19:02:50.910Z,988.734
2022-09-22T19:04:50.551Z,988.745
2022-09-22T19:06:50.690Z,988.791
2022-09-22T19:08:50.692Z,988.775
2022-09-22T19:10:50.616Z,988.778
2022-09-22T19:12:50.582Z,988.790
2022-09-22T19:14:50.476Z,988.773
2022-09-22T19:16:50.490Z,988.792
2022-09-22T19:18:50.465Z,988.779
2022-09-22T19:20:50.486Z,988.793
2022-09-22T19:22:50.439Z,988.797
2022-09-22T19:24:50.194Z,988.816
2022-09-22T19:26:50.353Z,988.822
2022-09-22T19:28:50.393Z,988.835
2022-09-22T19:30:50.651Z,988.814
2022-09-22T19:32:50.729Z,988.812
2022-09-22T19:34:49.979Z,988.777
2022-09-22T19:36:50.259Z,988.783
2022-09-22T19:38:50.055Z,988.792
2022-09-22T19:40:50.239Z,988.836
2022-09-22T19:42:50.072Z,988.847
2022-09-22T19:44:49.805Z,988.834
2022-09-22T19:46:50.066Z,988.813
2022-09-22T19:48:50.160Z,988.860
2022-09-22T19:50:50.085Z,988.847
2022-09-22T19:52:49.799Z,988.833
2022-09-22T19:54:50.748Z,988.814
2022-09-22T19:56:50.795Z,988.798
2022-09-22T19:58:50.576Z,988.789
2022-09-22T20:00:50.457Z,988.786
2022-09-22T20:02:50.188Z,988.768
2022-09-22T20:04:50.693Z,988.769
2022-09-22T20:06:49.884Z,988.733
2022-09-22T20:08:56.180Z,988.700
2022-09-22T20:11:25.413Z,988.672
2022-09-22T20:12:50.784Z,988.681
2022-09-22T20:14:50.973Z,988.758
2022-09-22T20:16:50.009Z,988.715
2022-09-22T20:18:49.884Z,988.696
2022-09-22T20:20:51.449Z,988.714
2022-09-22T20:22:50.216Z,988.702
2022-09-22T20:24:50.055Z,988.726
2022-09-22T20:26:50.211Z,988.746
2022-09-22T20:28:49.914Z,988.729
2022-09-22T20:30:50.087Z,988.717
2022-09-22T20:32:50.228Z,988.716
2022-09-22T20:34:50.547Z,988.786
2022-09-22T20:36:49.902Z,988.748
2022-09-22T20:38:49.846Z,988.745
2022-09-22T20:40:50.586Z,988.701
2022-09-22T20:42:50.293Z,988.716
2022-09-22T20:44:50.147Z,988.711
2022-09-22T20:46:50.328Z,988.737
2022-09-22T20:48:50.625Z,988.732
2022-09-22T20:50:50.639Z,988.721
2022-09-22T20:52:50.517Z,988.707
2022-09-22T20:54:50.283Z,988.737
2022-09-22T20:56:50.612Z,988.762
2022-09-22T20:58:50.604Z,988.765
2022-09-22T21:00:50.347Z,988.816
2022-09-22T21:02:50.655Z,988.722
2022-09-22T21:04:50.181Z,988.787
2022-09-22T21:06:50.503Z,988.778
2022-09-22T21:08:50.466Z,988.882
2022-09-22T21:10:50.444Z,988.816
2022-09-22T21:12:50.246Z,988.825
2022-09-22T21:14:50.298Z,988.789
2022-09-22T21:16:49.827Z,988.863
2022-09-22T21:18:50.492Z,988.882
2022-09-22T21:20:50.567Z,988.889
2022-09-22T21:22:50.347Z,988.870
2022-09-22T21:24:50.233Z,988.845
2022-09-22T21:26:50.409Z,988.866
2022-09-22T21:28:50.218Z,988.846
2022-09-22T21:30:50.311Z,988.824
2022-09-22T21:32:50.476Z,988.808
2022-09-22T21:34:50.641Z,988.802
2022-09-22T21:36:50.709Z,988.810
2022-09-22T21:38:50.709Z,988.767
2022-09-22T21:40:50.875Z,988.776
2022-09-22T21:42:49.906Z,988.784
2022-09-22T21:44:50.777Z,988.870
2022-09-22T21:46:49.961Z,988.841
2022-09-22T21:48:49.833Z,988.790
2022-09-22T21:50:50.580Z,988.775
2022-09-22T21:52:50.269Z,988.723
2022-09-22T21:54:50.324Z,988.718
2022-09-22T21:56:50.596Z,988.684
2022-09-22T21:58:49.900Z,988.643
2022-09-22T22:00:52.600Z,988.642
2022-09-22T22:02:50.463Z,988.631
2022-09-22T22:04:49.925Z,988.646
2022-09-22T22:06:50.032Z,988.647
2022-09-22T22:08:50.055Z,988.657
2022-09-22T22:10:49.849Z,988.629
2022-09-22T22:12:50.656Z,988.617
2022-09-22T22:14:50.412Z,988.602
2022-09-22T22:16:49.913Z,988.535
2022-09-22T22:18:49.819Z,988.487
2022-09-22T22:20:50.617Z,988.519
2022-09-22T22:22:50.694Z,988.497
2022-09-22T22:24:50.627Z,988.543
2022-09-22T22:26:49.890Z,988.479
2022-09-22T22:28:50.680Z,988.498
2022-09-22T22:30:50.820Z,988.520
2022-09-22T22:32:50.066Z,988.512
2022-09-22T22:34:50.214Z,988.496
2022-09-22T22:36:50.315Z,988.488
2022-09-22T22:38:50.141Z,988.518
2022-09-22T22:40:50.247Z,988.474
2022-09-22T22:42:50.541Z,988.485
2022-09-22T22:44:50.408Z,988.461
2022-09-22T22:46:50.555Z,988.453
2022-09-22T22:48:50.457Z,988.440
2022-09-22T22:50:50.349Z,988.474
2022-09-22T22:52:50.477Z,988.442
2022-09-22T22:54:50.255Z,988.422
2022-09-22T22:56:51.916Z,988.434
2022-09-22T22:58:50.604Z,988.427
2022-09-22T23:00:50.591Z,988.405
2022-09-22T23:02:50.458Z,988.419
2022-09-22T23:04:50.815Z,988.353
2022-09-22T23:06:50.413Z,988.387
2022-09-22T23:08:50.518Z,988.365
2022-09-22T23:10:50.447Z,988.354
2022-09-22T23:12:50.198Z,988.380
2022-09-22T23:14:49.925Z,988.369
2022-09-22T23:16:50.018Z,988.360
2022-09-22T23:18:50.729Z,988.403
2022-09-22T23:20:50.525Z,988.392
2022-09-22T23:22:50.529Z,988.370
2022-09-22T23:24:50.405Z,988.366
2022-09-22T23:26:49.838Z,988.366
2022-09-22T23:28:50.753Z,988.356
2022-09-22T23:30:50.725Z,988.336
2022-09-22T23:32:49.784Z,988.270
2022-09-22T23:34:50.065Z,988.290
2022-09-22T23:36:50.187Z,988.307
2022-09-22T23:38:49.938Z,988.277
2022-09-22T23:40:50.194Z,988.270
2022-09-22T23:42:50.257Z,988.236
2022-09-22T23:44:50.255Z,988.274
2022-09-22T23:46:50.415Z,988.275
2022-09-22T23:48:50.029Z,988.238
2022-09-22T23:50:50.017Z,988.246
2022-09-22T23:52:49.969Z,988.207
2022-09-22T23:54:49.899Z,988.139
2022-09-22T23:56:50.119Z,988.168
2022-09-22T23:58:50.150Z,988.180
